createdAt,value
2023-05-08T00:01:31.190Z,14.97
2023-05-08T00:03:58.418Z,13.93
2023-05-08T00:06:25.616Z,16.00
2023-05-08T00:08:52.452Z,18.07
2023-05-08T00:11:19.350Z,17.07
2023-05-08T00:13:46.131Z,16.77
2023-05-08T00:16:13.209Z,18.73
2023-05-08T00:18:40.386Z,19.47
2023-05-08T00:21:07.286Z,16.93
2023-05-08T00:23:34.733Z,17.73
2023-05-08T00:26:01.667Z,18.23
2023-05-08T00:28:28.505Z,18.50
2023-05-08T00:31:02.025Z,20.20
2023-05-08T00:33:28.948Z,16.17
2023-05-08T00:36:05.775Z,18.87
2023-05-08T00:38:33.973Z,18.77
2023-05-08T00:41:01.812Z,19.93
2023-05-08T00:43:28.940Z,21.70
2023-05-08T00:46:01.406Z,17.47
2023-05-08T00:48:32.042Z,18.53
2023-05-08T00:51:04.551Z,18.60
2023-05-08T00:53:33.837Z,17.20
2023-05-08T00:56:03.849Z,22.60
2023-05-08T00:58:32.505Z,21.27
2023-05-08T01:01:00.794Z,18.63
2023-05-08T01:03:28.729Z,18.53
2023-05-08T01:05:57.599Z,16.40
2023-05-08T01:08:27.384Z,17.63
2023-05-08T01:10:54.092Z,18.90
2023-05-08T01:13:40.617Z,19.23
2023-05-08T01:16:16.418Z,18.77
2023-05-08T01:18:51.166Z,20.13
2023-05-08T01:21:34.615Z,16.30
2023-05-08T01:24:24.770Z,17.90
2023-05-08T01:27:43.853Z,19.23
2023-05-08T01:30:48.259Z,18.47
2023-05-08T01:33:25.553Z,16.33
2023-05-08T01:36:15.115Z,19.00
2023-05-08T01:39:13.431Z,20.00
2023-05-08T01:41:45.741Z,18.13
2023-05-08T01:44:24.736Z,20.03
2023-05-08T01:46:52.401Z,19.47
2023-05-08T01:49:34.510Z,18.87
2023-05-08T01:52:07.475Z,21.37
2023-05-08T01:54:41.282Z,19.03
2023-05-08T01:57:13.441Z,19.47
2023-05-08T01:59:43.100Z,20.27
2023-05-08T02:02:11.186Z,19.77
2023-05-08T02:04:39.881Z,19.67
2023-05-08T02:07:08.088Z,19.37
2023-05-08T02:09:35.624Z,17.70
2023-05-08T02:12:03.808Z,20.63
2023-05-08T02:14:32.915Z,19.20
2023-05-08T02:17:01.411Z,22.17
2023-05-08T02:19:29.794Z,21.77
2023-05-08T02:21:58.852Z,20.20
2023-05-08T02:24:26.432Z,21.43
2023-05-08T02:26:57.428Z,21.57
2023-05-08T02:29:25.322Z,22.13
2023-05-08T02:31:54.402Z,21.00
2023-05-08T02:34:23.442Z,25.13
2023-05-08T02:36:52.636Z,22.07
2023-05-08T02:39:21.603Z,20.57
2023-05-08T02:41:48.982Z,21.83
2023-05-08T02:44:17.102Z,21.77
2023-05-08T02:46:58.016Z,21.03
2023-05-08T02:49:33.394Z,21.83
2023-05-08T02:52:14.400Z,25.67
2023-05-08T02:54:55.721Z,20.90
2023-05-08T02:57:33.387Z,27.80
2023-05-08T03:00:11.605Z,22.17
2023-05-08T03:02:43.209Z,24.10
2023-05-08T03:05:19.245Z,24.90
2023-05-08T03:07:50.184Z,21.10
2023-05-08T03:10:19.657Z,23.53
2023-05-08T03:12:49.708Z,25.17
2023-05-08T03:15:26.964Z,17.40
2023-05-08T03:17:58.844Z,21.17
2023-05-08T03:20:29.560Z,25.23
2023-05-08T03:22:57.184Z,23.80
2023-05-08T03:25:24.712Z,24.67
2023-05-08T03:27:53.044Z,24.77
2023-05-08T03:30:20.621Z,25.43
2023-05-08T03:32:52.005Z,23.57
2023-05-08T03:35:19.753Z,22.23
2023-05-08T03:37:46.690Z,23.93
2023-05-08T03:40:13.986Z,21.50
2023-05-08T03:42:42.597Z,25.07
2023-05-08T03:45:10.821Z,24.77
2023-05-08T03:47:38.188Z,25.40
2023-05-08T03:50:06.065Z,24.40
2023-05-08T03:52:32.843Z,22.13
2023-05-08T03:54:59.703Z,19.90
2023-05-08T03:57:31.341Z,26.37
2023-05-08T04:00:03.514Z,23.57
2023-05-08T04:02:43.134Z,24.60
2023-05-08T04:05:26.124Z,23.00
2023-05-08T04:08:37.002Z,23.00
2023-05-08T04:11:18.130Z,20.47
2023-05-08T04:13:54.214Z,23.50
2023-05-08T04:16:27.131Z,23.53
2023-05-08T04:18:59.800Z,21.00
2023-05-08T04:21:29.065Z,22.53
2023-05-08T04:23:58.364Z,21.17
2023-05-08T04:26:26.014Z,18.37
2023-05-08T04:28:53.358Z,18.70
2023-05-08T04:31:20.836Z,20.50
2023-05-08T04:33:48.059Z,20.17
2023-05-08T04:36:14.940Z,21.57
2023-05-08T04:38:41.872Z,21.10
2023-05-08T04:41:08.844Z,21.53
2023-05-08T04:43:36.746Z,22.93
2023-05-08T04:46:05.464Z,22.50
2023-05-08T04:48:33.857Z,23.10
2023-05-08T04:51:01.092Z,22.93
2023-05-08T04:53:28.128Z,22.27
2023-05-08T04:55:58.652Z,23.73
2023-05-08T04:58:25.412Z,26.53
2023-05-08T05:00:52.191Z,24.73
2023-05-08T05:03:19.104Z,30.53
2023-05-08T05:05:45.928Z,27.67
2023-05-08T05:08:12.662Z,27.77
2023-05-08T05:10:40.000Z,31.23
2023-05-08T05:13:06.770Z,33.23
2023-05-08T05:15:33.711Z,32.83
2023-05-08T05:18:00.615Z,32.53
2023-05-08T05:20:27.473Z,31.93
2023-05-08T05:22:54.316Z,33.10
2023-05-08T05:25:21.033Z,34.17
2023-05-08T05:27:47.753Z,37.23
2023-05-08T05:30:14.970Z,38.87
2023-05-08T05:32:42.485Z,39.97
2023-05-08T05:35:09.999Z,41.97
2023-05-08T05:37:37.320Z,50.30
2023-05-08T05:40:04.568Z,38.07
2023-05-08T05:42:31.633Z,30.93
2023-05-08T05:44:59.157Z,28.50
2023-05-08T05:47:26.072Z,28.90
2023-05-08T05:49:52.820Z,31.20
2023-05-08T05:52:19.593Z,28.53
2023-05-08T05:54:46.701Z,29.70
2023-05-08T05:57:13.952Z,30.97
2023-05-08T05:59:41.116Z,30.30
2023-05-08T06:02:10.502Z,28.90
2023-05-08T06:04:39.928Z,33.10
2023-05-08T06:07:06.598Z,32.63
2023-05-08T06:09:33.364Z,35.40
2023-05-08T06:12:00.110Z,35.93
2023-05-08T06:14:29.665Z,35.37
2023-05-08T06:16:58.951Z,35.70
2023-05-08T06:19:26.215Z,37.47
2023-05-08T06:21:52.944Z,43.63
2023-05-08T06:24:19.710Z,38.20
2023-05-08T06:26:49.617Z,39.27
2023-05-08T06:29:16.675Z,40.10
2023-05-08T06:31:43.570Z,40.30
2023-05-08T06:34:10.596Z,40.40
2023-05-08T06:36:37.645Z,45.20
2023-05-08T06:39:06.164Z,40.50
2023-05-08T06:41:32.973Z,42.37
2023-05-08T06:43:59.799Z,42.50
2023-05-08T06:46:26.687Z,40.40
2023-05-08T06:48:54.648Z,39.17
2023-05-08T06:51:23.260Z,44.37
2023-05-08T06:53:50.368Z,42.63
2023-05-08T06:56:18.234Z,40.80
2023-05-08T06:59:00.600Z,43.10
2023-05-08T07:01:36.210Z,43.13
2023-05-08T07:04:03.354Z,43.93
2023-05-08T07:06:34.295Z,42.80
2023-05-08T07:09:01.156Z,45.63
2023-05-08T07:11:27.876Z,41.57
2023-05-08T07:13:54.645Z,42.20
2023-05-08T07:16:21.472Z,39.43
2023-05-08T07:18:48.351Z,39.50
2023-05-08T07:21:15.951Z,40.60
2023-05-08T07:23:42.700Z,44.23
2023-05-08T07:26:09.446Z,40.37
2023-05-08T07:28:38.851Z,44.53
2023-05-08T07:31:07.244Z,45.87
2023-05-08T07:33:34.669Z,44.00
2023-05-08T07:36:01.910Z,43.97
2023-05-08T07:38:28.653Z,44.47
2023-05-08T07:40:57.576Z,41.80
2023-05-08T07:43:24.605Z,42.83
2023-05-08T07:45:54.136Z,45.57
2023-05-08T07:48:21.321Z,44.50
2023-05-08T07:50:50.333Z,41.57
2023-05-08T07:53:17.551Z,42.60
2023-05-08T07:55:44.345Z,43.67
2023-05-08T07:58:11.152Z,42.87
2023-05-08T08:00:38.046Z,44.37
2023-05-08T08:03:04.977Z,45.77
2023-05-08T08:05:32.059Z,46.20
2023-05-08T08:07:58.959Z,41.57
2023-05-08T08:10:26.005Z,44.53
2023-05-08T08:12:52.922Z,44.47
2023-05-08T08:15:19.938Z,44.53
2023-05-08T08:17:46.951Z,41.97
2023-05-08T08:20:13.864Z,41.30
2023-05-08T08:22:40.686Z,39.47
2023-05-08T08:25:08.169Z,41.23
2023-05-08T08:27:35.160Z,40.10
2023-05-08T08:30:15.749Z,39.07
2023-05-08T08:32:44.318Z,38.80
2023-05-08T08:35:15.660Z,36.83
2023-05-08T08:37:46.170Z,40.73
2023-05-08T08:40:13.113Z,40.60
2023-05-08T08:42:40.939Z,42.33
2023-05-08T08:45:08.464Z,41.97
2023-05-08T08:47:41.477Z,39.10
2023-05-08T08:50:11.293Z,40.67
2023-05-08T08:53:03.247Z,36.37
2023-05-08T08:55:37.617Z,39.87
2023-05-08T08:58:19.318Z,38.10
2023-05-08T09:00:48.568Z,39.57
2023-05-08T09:03:18.598Z,33.67
2023-05-08T09:05:46.063Z,36.90
2023-05-08T09:08:13.031Z,34.53
2023-05-08T09:10:39.969Z,33.50
2023-05-08T09:13:07.161Z,32.73
2023-05-08T09:15:34.163Z,32.47
2023-05-08T09:18:04.339Z,35.63
2023-05-08T09:20:34.583Z,31.27
2023-05-08T09:23:02.890Z,34.17
2023-05-08T09:25:47.029Z,35.73
2023-05-08T09:28:26.436Z,34.80
2023-05-08T09:30:56.632Z,29.03
2023-05-08T09:33:28.019Z,33.47
2023-05-08T09:35:58.149Z,32.63
2023-05-08T09:38:39.944Z,30.30
2023-05-08T09:41:14.828Z,32.43
2023-05-08T09:43:43.205Z,32.67
2023-05-08T09:46:26.748Z,31.53
2023-05-08T09:48:56.081Z,33.03
2023-05-08T09:51:23.481Z,30.23
2023-05-08T09:53:55.240Z,29.43
2023-05-08T09:56:35.105Z,38.67
2023-05-08T09:59:28.736Z,40.83
2023-05-08T10:01:56.245Z,43.13
2023-05-08T10:04:36.207Z,40.90
2023-05-08T10:07:04.758Z,40.53
2023-05-08T10:09:42.662Z,38.10
2023-05-08T10:12:17.288Z,38.80
2023-05-08T10:14:47.117Z,41.90
2023-05-08T10:17:24.623Z,43.63
2023-05-08T10:20:01.187Z,38.10
2023-05-08T10:22:33.648Z,40.53
2023-05-08T10:25:02.834Z,37.20
2023-05-08T10:27:53.338Z,39.37
2023-05-08T10:30:26.075Z,41.73
2023-05-08T10:32:58.434Z,42.03
2023-05-08T10:35:25.445Z,41.43
2023-05-08T10:37:53.774Z,40.87
2023-05-08T10:40:21.893Z,43.47
2023-05-08T10:42:50.768Z,44.23
2023-05-08T10:45:17.838Z,42.40
2023-05-08T10:48:22.482Z,40.13
2023-05-08T10:51:10.183Z,43.10
2023-05-08T10:53:57.279Z,38.47
2023-05-08T10:56:27.867Z,37.97
2023-05-08T10:59:00.797Z,38.73
2023-05-08T11:01:28.250Z,43.83
2023-05-08T11:03:58.873Z,37.87
2023-05-08T11:06:46.608Z,41.43
2023-05-08T11:09:21.906Z,41.17
2023-05-08T11:12:19.697Z,36.00
2023-05-08T11:15:02.065Z,44.23
2023-05-08T11:17:29.351Z,37.80
2023-05-08T11:20:01.102Z,41.60
2023-05-08T11:22:38.218Z,37.57
2023-05-08T11:25:07.497Z,36.27
2023-05-08T11:27:40.796Z,41.03
2023-05-08T11:30:24.055Z,36.30
2023-05-08T11:33:09.170Z,36.80
2023-05-08T11:35:44.956Z,39.73
2023-05-08T11:38:17.715Z,34.43
2023-05-08T11:41:22.169Z,39.87
2023-05-08T11:44:20.017Z,40.20
2023-05-08T11:46:54.839Z,39.70
2023-05-08T11:49:29.859Z,37.23
2023-05-08T11:51:59.141Z,41.17
2023-05-08T11:54:29.273Z,42.53
2023-05-08T11:56:56.302Z,43.27
2023-05-08T11:59:24.789Z,42.00
2023-05-08T12:02:09.772Z,45.23
2023-05-08T12:05:00.767Z,40.50
2023-05-08T12:07:50.031Z,38.53
2023-05-08T12:10:24.535Z,43.10
2023-05-08T12:13:15.612Z,35.20
2023-05-08T12:15:53.193Z,35.20
2023-05-08T12:18:21.841Z,33.47
2023-05-08T12:20:57.251Z,32.88
2023-05-08T12:23:37.388Z,31.80
2023-05-08T12:26:04.583Z,34.30
2023-05-08T12:28:34.332Z,33.95
2023-05-08T12:31:04.765Z,35.03
2023-05-08T12:33:33.970Z,35.83
2023-05-08T12:36:01.974Z,37.05
2023-05-08T12:44:40.827Z,32.60
2023-05-08T12:52:06.306Z,29.88
2023-05-08T12:55:53.313Z,34.45
2023-05-08T13:05:26.275Z,32.30
2023-05-08T13:07:58.762Z,30.70
2023-05-08T13:10:26.686Z,32.75
2023-05-08T13:12:54.527Z,31.00
2023-05-08T13:15:21.367Z,33.17
2023-05-08T13:18:05.628Z,36.15
2023-05-08T13:20:32.410Z,31.00
2023-05-08T13:25:36.674Z,39.03
2023-05-08T13:28:04.332Z,40.15
2023-05-08T13:30:31.473Z,37.38
2023-05-08T13:32:58.500Z,37.95
2023-05-08T13:35:26.175Z,39.25
2023-05-08T13:37:53.073Z,32.78
2023-05-08T13:40:19.942Z,39.90
2023-05-08T13:42:47.103Z,37.85
2023-05-08T13:45:18.532Z,35.63
2023-05-08T13:47:47.845Z,36.15
2023-05-08T13:50:16.185Z,37.58
2023-05-08T13:52:43.514Z,36.80
2023-05-08T13:55:12.758Z,34.42
2023-05-08T13:57:40.470Z,32.35
2023-05-08T14:00:09.384Z,30.73
2023-05-08T14:02:37.683Z,33.20
2023-05-08T14:05:07.958Z,34.17
2023-05-08T14:07:35.729Z,32.85
2023-05-08T14:10:03.025Z,37.10
2023-05-08T14:12:29.849Z,33.17
2023-05-08T14:14:56.737Z,39.92
2023-05-08T14:17:23.496Z,38.47
2023-05-08T14:19:50.285Z,36.40
2023-05-08T14:22:17.138Z,38.22
2023-05-08T14:24:44.384Z,37.83
2023-05-08T14:27:11.296Z,37.33
2023-05-08T14:29:38.292Z,36.72
2023-05-08T14:32:05.719Z,31.52
2023-05-08T14:34:32.741Z,36.17
2023-05-08T14:37:03.298Z,35.58
2023-05-08T14:39:30.206Z,34.15
2023-05-08T14:42:20.677Z,35.53
2023-05-08T14:44:44.379Z,33.90
2023-05-08T14:47:11.248Z,34.03
2023-05-08T14:49:38.774Z,36.65
2023-05-08T14:52:07.021Z,35.80
2023-05-08T14:54:34.318Z,37.10
2023-05-08T14:57:01.219Z,41.40
2023-05-08T14:59:28.169Z,38.17
2023-05-08T15:01:55.074Z,39.78
2023-05-08T15:04:24.877Z,41.90
2023-05-08T15:06:51.631Z,40.55
2023-05-08T15:09:18.399Z,46.10
2023-05-08T15:11:47.988Z,43.30
2023-05-08T15:14:17.552Z,44.28
2023-05-08T15:16:44.403Z,48.13
2023-05-08T15:19:11.317Z,46.28
2023-05-08T15:21:39.244Z,49.75
2023-05-08T15:24:06.421Z,50.60
2023-05-08T15:26:33.215Z,53.83
2023-05-08T15:29:00.130Z,55.45
2023-05-08T15:31:26.872Z,60.10
2023-05-08T15:33:53.666Z,58.47
2023-05-08T15:36:20.416Z,58.33
2023-05-08T15:38:49.165Z,65.63
2023-05-08T15:41:16.028Z,66.83
2023-05-08T15:43:45.142Z,68.20
2023-05-08T15:46:12.050Z,65.80
2023-05-08T15:48:38.997Z,66.65
2023-05-08T15:51:06.774Z,65.77
2023-05-08T15:53:34.318Z,66.13
2023-05-08T15:56:01.157Z,65.93
2023-05-08T15:58:27.920Z,64.67
2023-05-08T16:00:54.852Z,62.10
2023-05-08T16:03:22.275Z,61.23
2023-05-08T16:05:49.780Z,56.80
2023-05-08T16:08:18.796Z,61.80
2023-05-08T16:10:45.564Z,54.13
2023-05-08T16:13:12.485Z,53.17
2023-05-08T16:15:39.270Z,52.07
2023-05-08T16:18:06.912Z,57.37
2023-05-08T16:20:36.058Z,39.60
2023-05-08T16:23:03.275Z,39.13
2023-05-08T16:25:29.969Z,37.97
2023-05-08T16:27:57.017Z,35.37
2023-05-08T16:30:23.814Z,38.03
2023-05-08T16:32:50.721Z,36.93
2023-05-08T16:35:18.066Z,38.07
2023-05-08T16:37:45.217Z,35.70
2023-05-08T16:40:12.325Z,35.67
2023-05-08T16:42:39.167Z,34.00
2023-05-08T16:45:06.549Z,44.33
2023-05-08T16:47:34.019Z,53.63
2023-05-08T16:50:01.047Z,53.37
2023-05-08T16:52:30.260Z,52.30
2023-05-08T16:54:57.470Z,55.10
2023-05-08T16:57:24.443Z,52.43
2023-05-08T16:59:51.990Z,49.63
2023-05-08T17:02:19.302Z,46.57
2023-05-08T17:04:47.379Z,45.00
2023-05-08T17:07:15.080Z,45.53
2023-05-08T17:09:45.334Z,45.43
2023-05-08T17:12:12.164Z,42.37
2023-05-08T17:14:40.429Z,40.37
2023-05-08T17:17:07.724Z,40.00
2023-05-08T17:19:35.039Z,36.80
2023-05-08T17:22:02.386Z,37.60
2023-05-08T17:24:30.558Z,36.30
2023-05-08T17:26:57.402Z,34.63
2023-05-08T17:29:26.401Z,36.87
2023-05-08T17:31:53.233Z,35.37
2023-05-08T17:34:22.413Z,36.20
2023-05-08T17:36:49.375Z,33.73
2023-05-08T17:39:18.217Z,31.03
2023-05-08T17:41:45.012Z,35.10
2023-05-08T17:44:11.793Z,33.83
2023-05-08T17:46:38.589Z,35.70
2023-05-08T17:49:05.519Z,35.13
2023-05-08T17:51:32.439Z,33.87
2023-05-08T17:53:59.157Z,35.87
2023-05-08T17:56:26.257Z,34.67
2023-05-08T17:58:53.177Z,35.50
2023-05-08T18:01:20.584Z,36.03
2023-05-08T18:03:48.620Z,33.20
2023-05-08T18:06:16.361Z,34.60
2023-05-08T18:08:43.383Z,35.20
2023-05-08T18:11:38.642Z,33.63
2023-05-08T18:14:05.394Z,36.10
2023-05-08T18:16:32.261Z,35.63
2023-05-08T18:19:01.967Z,34.40
2023-05-08T18:21:28.927Z,38.23
2023-05-08T18:23:55.824Z,35.93
2023-05-08T18:26:22.681Z,38.17
2023-05-08T18:28:49.434Z,37.60
2023-05-08T18:31:16.815Z,42.17
2023-05-08T18:33:45.762Z,44.60
2023-05-08T18:36:12.513Z,41.73
2023-05-08T18:38:41.600Z,49.67
2023-05-08T18:41:08.527Z,37.37
2023-05-08T18:43:35.386Z,42.47
2023-05-08T18:46:12.520Z,37.37
2023-05-08T18:48:42.988Z,39.03
2023-05-08T18:51:10.613Z,39.90
2023-05-08T18:53:41.030Z,41.53
2023-05-08T18:56:18.116Z,45.50
2023-05-08T18:58:46.511Z,44.80
2023-05-08T19:01:13.613Z,48.80
2023-05-08T19:03:40.428Z,43.03
2023-05-08T19:06:07.395Z,47.83
2023-05-08T19:08:34.177Z,47.33
2023-05-08T19:11:00.991Z,46.27
2023-05-08T19:13:27.910Z,46.17
2023-05-08T19:15:54.791Z,44.83
2023-05-08T19:18:21.726Z,44.40
2023-05-08T19:20:48.442Z,49.10
2023-05-08T19:23:17.344Z,46.67
2023-05-08T19:25:47.344Z,50.13
2023-05-08T19:28:14.543Z,43.00
2023-05-08T19:30:41.350Z,46.93
2023-05-08T19:33:08.249Z,48.57
2023-05-08T19:35:35.005Z,48.13
2023-05-08T19:38:01.726Z,52.97
2023-05-08T19:40:31.850Z,52.67
2023-05-08T19:42:59.871Z,47.00
2023-05-08T19:45:26.757Z,49.40
2023-05-08T19:47:53.666Z,51.77
2023-05-08T19:50:20.651Z,51.67
2023-05-08T19:52:48.718Z,49.47
2023-05-08T19:55:16.749Z,46.70
2023-05-08T19:57:44.161Z,52.10
2023-05-08T20:00:12.150Z,45.60
2023-05-08T20:02:39.376Z,46.27
2023-05-08T20:07:36.386Z,54.67
2023-05-08T20:10:03.172Z,47.30
2023-05-08T20:12:30.058Z,50.23
2023-05-08T20:14:56.799Z,51.37
2023-05-08T20:17:23.710Z,47.90
2023-05-08T20:19:50.594Z,57.73
2023-05-08T20:22:17.454Z,54.50
2023-05-08T20:24:44.212Z,56.37
2023-05-08T20:27:11.152Z,58.50
2023-05-08T20:29:38.053Z,52.53
2023-05-08T20:32:07.277Z,55.17
2023-05-08T20:34:34.907Z,53.03
2023-05-08T20:37:03.781Z,55.03
2023-05-08T20:39:30.649Z,57.33
2023-05-08T20:41:57.522Z,62.77
2023-05-08T20:44:24.307Z,52.60
2023-05-08T20:46:54.964Z,52.83
2023-05-08T20:49:21.886Z,53.20
2023-05-08T20:51:48.574Z,54.07
2023-05-08T20:54:15.397Z,55.60
2023-05-08T20:56:42.194Z,54.03
2023-05-08T20:59:08.963Z,51.33
2023-05-08T21:01:38.641Z,57.57
2023-05-08T21:04:05.416Z,59.30
2023-05-08T21:06:32.272Z,57.27
2023-05-08T21:08:59.053Z,61.00
2023-05-08T21:11:25.799Z,53.77
2023-05-08T21:13:52.620Z,54.80
2023-05-08T21:16:19.433Z,52.87
2023-05-08T21:18:46.358Z,55.23
2023-05-08T21:21:22.703Z,54.20
2023-05-08T21:23:49.474Z,55.73
2023-05-08T21:26:16.246Z,56.67
2023-05-08T21:28:42.949Z,58.77
2023-05-08T21:31:09.842Z,52.03
2023-05-08T21:33:36.767Z,57.53
2023-05-08T21:36:03.699Z,53.00
2023-05-08T21:38:30.657Z,56.57
2023-05-08T21:40:57.592Z,56.80
2023-05-08T21:43:27.348Z,58.80
2023-05-08T21:45:54.326Z,57.67
2023-05-08T21:48:22.945Z,58.30
2023-05-08T21:50:52.791Z,58.60
2023-05-08T21:53:19.764Z,60.27
2023-05-08T21:55:46.600Z,61.37
2023-05-08T21:58:13.525Z,60.80
2023-05-08T22:00:42.836Z,56.90
2023-05-08T22:03:09.737Z,65.07
2023-05-08T22:05:36.634Z,58.47
2023-05-08T22:08:03.492Z,58.53
2023-05-08T22:10:30.321Z,58.50
2023-05-08T22:13:01.667Z,59.40
2023-05-08T22:15:30.594Z,62.83
2023-05-08T22:17:58.611Z,61.90
2023-05-08T22:20:25.984Z,64.37
2023-05-08T22:22:52.945Z,59.40
2023-05-08T22:25:21.807Z,65.00
2023-05-08T22:27:48.745Z,64.13
2023-05-08T22:30:15.571Z,63.10
2023-05-08T22:32:42.807Z,59.87
2023-05-08T22:35:12.752Z,54.37
2023-05-08T22:37:42.325Z,55.33
2023-05-08T22:40:12.669Z,60.20
2023-05-08T22:42:39.505Z,53.50
2023-05-08T22:45:06.776Z,53.20
2023-05-08T22:47:34.497Z,59.90
2023-05-08T22:50:02.276Z,53.13
2023-05-08T22:52:29.294Z,51.40
2023-05-08T22:54:56.126Z,60.17
2023-05-08T22:57:22.914Z,56.70
2023-05-08T22:59:49.684Z,49.43
2023-05-08T23:02:16.410Z,50.47
2023-05-08T23:04:43.182Z,53.63
2023-05-08T23:07:09.985Z,54.90
2023-05-08T23:09:36.976Z,55.20
2023-05-08T23:12:04.141Z,57.30
2023-05-08T23:14:30.880Z,57.90
2023-05-08T23:16:57.748Z,54.70
2023-05-08T23:19:24.496Z,53.33
2023-05-08T23:21:51.421Z,54.53
2023-05-08T23:24:19.970Z,59.00
2023-05-08T23:26:49.624Z,55.87
2023-05-08T23:29:16.762Z,52.90
2023-05-08T23:31:43.646Z,56.93
2023-05-08T23:34:10.582Z,54.63
2023-05-08T23:36:37.354Z,56.00
2023-05-08T23:39:04.284Z,56.00
2023-05-08T23:41:34.374Z,65.43
2023-05-08T23:44:01.250Z,55.03
2023-05-08T23:46:28.036Z,59.47
2023-05-08T23:48:55.097Z,57.37
2023-05-08T23:51:21.964Z,64.13
2023-05-08T23:53:50.143Z,61.50
2023-05-08T23:56:17.035Z,58.40
2023-05-08T23:58:43.997Z,62.23
